createdAt,value
2023-05-06T00:00:15.604Z,39.63
2023-05-06T00:02:43.424Z,43.38
2023-05-06T00:05:14.289Z,47.75
2023-05-06T00:07:47.464Z,41.55
2023-05-06T00:10:14.474Z,41.53
2023-05-06T00:12:41.756Z,42.88
2023-05-06T00:15:11.942Z,41.45
2023-05-06T00:17:39.611Z,39.70
2023-05-06T00:20:10.493Z,44.00
2023-05-06T00:22:53.273Z,39.75
2023-05-06T00:26:03.578Z,39.87
2023-05-06T00:28:30.746Z,41.30
2023-05-06T00:30:57.876Z,43.30
2023-05-06T00:33:25.959Z,39.65
2023-05-06T00:35:53.423Z,40.17
2023-05-06T00:38:20.800Z,40.78
2023-05-06T00:40:48.056Z,44.00
2023-05-06T00:43:15.458Z,39.70
2023-05-06T00:45:42.817Z,43.83
2023-05-06T00:48:10.866Z,43.35
2023-05-06T00:50:43.900Z,41.20
2023-05-06T00:53:11.570Z,40.97
2023-05-06T00:55:40.458Z,44.10
2023-05-06T00:58:08.754Z,43.75
2023-05-06T01:00:35.868Z,45.60
2023-05-06T01:03:06.289Z,47.55
2023-05-06T01:05:36.740Z,45.78
2023-05-06T01:08:09.278Z,42.10
2023-05-06T01:10:45.311Z,90.50
2023-05-06T01:13:15.256Z,46.42
2023-05-06T01:15:46.732Z,46.20
2023-05-06T01:18:17.175Z,51.80
2023-05-06T01:20:52.597Z,42.80
2023-05-06T01:23:20.597Z,46.67
2023-05-06T01:25:47.690Z,47.45
2023-05-06T01:28:17.667Z,53.03
2023-05-06T01:30:57.907Z,45.42
2023-05-06T01:33:25.897Z,47.95
2023-05-06T01:36:02.678Z,47.03
2023-05-06T01:38:53.346Z,47.67
2023-05-06T01:41:24.515Z,49.45
2023-05-06T01:43:53.062Z,46.08
2023-05-06T01:46:22.043Z,51.65
2023-05-06T01:48:56.924Z,50.00
2023-05-06T01:51:24.559Z,48.78
2023-05-06T01:53:51.510Z,47.88
2023-05-06T01:56:18.620Z,48.45
2023-05-06T01:58:46.362Z,52.88
2023-05-06T02:01:14.766Z,61.78
2023-05-06T02:03:42.271Z,54.35
2023-05-06T02:06:09.814Z,52.08
2023-05-06T02:08:39.397Z,47.50
2023-05-06T02:11:06.576Z,55.85
2023-05-06T02:13:42.905Z,41.72
2023-05-06T02:16:10.964Z,38.28
2023-05-06T02:18:38.482Z,38.33
2023-05-06T02:21:05.488Z,39.28
2023-05-06T02:23:32.802Z,42.75
2023-05-06T02:26:02.251Z,45.33
2023-05-06T02:28:29.213Z,46.88
2023-05-06T02:30:56.523Z,49.13
2023-05-06T02:33:24.167Z,51.40
2023-05-06T02:35:51.967Z,52.78
2023-05-06T02:38:19.567Z,53.03
2023-05-06T02:40:46.744Z,57.15
2023-05-06T02:43:13.719Z,52.13
2023-05-06T02:45:41.090Z,58.08
2023-05-06T02:48:08.287Z,52.53
2023-05-06T02:50:36.842Z,53.75
2023-05-06T02:53:03.953Z,53.10
2023-05-06T02:55:31.097Z,59.42
2023-05-06T02:57:58.171Z,54.78
2023-05-06T03:00:25.319Z,53.08
2023-05-06T03:02:53.273Z,55.65
2023-05-06T03:05:21.237Z,59.22
2023-05-06T03:07:48.278Z,55.08
2023-05-06T03:10:15.476Z,62.70
2023-05-06T03:12:42.716Z,60.45
2023-05-06T03:15:10.129Z,63.67
2023-05-06T03:17:38.690Z,64.40
2023-05-06T03:20:08.418Z,64.15
2023-05-06T03:22:37.727Z,62.35
2023-05-06T03:25:05.479Z,56.85
2023-05-06T03:27:34.279Z,61.38
2023-05-06T03:30:07.551Z,66.00
2023-05-06T03:32:34.830Z,60.72
2023-05-06T03:35:03.461Z,62.30
2023-05-06T03:37:30.904Z,69.75
2023-05-06T03:39:58.088Z,61.80
2023-05-06T03:42:27.334Z,61.13
2023-05-06T03:44:54.641Z,67.35
2023-05-06T03:47:23.435Z,60.25
2023-05-06T03:49:51.261Z,67.78
2023-05-06T03:52:18.885Z,57.42
2023-05-06T03:54:46.202Z,65.72
2023-05-06T03:57:14.094Z,65.68
2023-05-06T03:59:41.687Z,64.10
2023-05-06T04:02:09.887Z,58.47
2023-05-06T04:04:39.156Z,63.63
2023-05-06T04:07:06.325Z,61.33
2023-05-06T04:09:33.553Z,61.28
2023-05-06T04:12:03.685Z,55.20
2023-05-06T04:14:31.028Z,55.03
2023-05-06T04:16:59.318Z,59.65
2023-05-06T04:19:27.209Z,54.88
2023-05-06T04:21:54.103Z,54.53
2023-05-06T04:24:21.789Z,59.30
2023-05-06T04:26:48.893Z,56.60
2023-05-06T04:29:16.712Z,60.63
2023-05-06T04:31:55.499Z,55.22
2023-05-06T04:34:25.405Z,56.10
2023-05-06T04:36:54.303Z,61.47
2023-05-06T04:39:48.979Z,59.38
2023-05-06T04:42:16.905Z,59.72
2023-05-06T04:44:55.682Z,60.67
2023-05-06T04:47:28.151Z,56.85
2023-05-06T04:49:55.353Z,61.40
2023-05-06T04:52:23.550Z,60.88
2023-05-06T04:55:02.804Z,62.38
2023-05-06T04:57:35.582Z,55.70
2023-05-06T05:00:03.811Z,54.72
2023-05-06T05:02:33.139Z,53.53
2023-05-06T05:05:21.877Z,50.95
2023-05-06T05:07:52.041Z,49.60
2023-05-06T05:10:50.985Z,61.35
2023-05-06T05:16:21.734Z,49.80
2023-05-06T05:18:49.108Z,40.90
2023-05-06T05:21:21.162Z,44.72
2023-05-06T05:23:48.231Z,53.40
2023-05-06T05:26:15.135Z,46.45
2023-05-06T05:28:44.259Z,45.70
2023-05-06T05:31:21.812Z,39.90
2023-05-06T05:33:50.193Z,44.38
2023-05-06T05:36:21.107Z,37.67
2023-05-06T05:38:50.508Z,36.67
2023-05-06T05:41:18.677Z,37.08
2023-05-06T05:43:46.078Z,47.35
2023-05-06T05:46:14.436Z,41.15
2023-05-06T05:48:42.600Z,48.97
2023-05-06T05:51:10.908Z,39.47
2023-05-06T05:53:38.061Z,39.22
2023-05-06T05:56:06.229Z,39.58
2023-05-06T05:58:34.430Z,45.20
2023-05-06T06:01:01.824Z,37.47
2023-05-06T06:03:29.532Z,42.83
2023-05-06T06:05:56.638Z,39.30
2023-05-06T06:08:29.841Z,45.38
2023-05-06T06:10:58.124Z,36.90
2023-05-06T06:16:01.006Z,34.08
2023-05-06T06:18:29.363Z,39.58
2023-05-06T06:20:58.819Z,36.70
2023-05-06T06:23:26.202Z,37.13
2023-05-06T06:25:52.992Z,32.30
2023-05-06T06:28:19.818Z,38.30
2023-05-06T06:30:46.969Z,31.88
2023-05-06T06:33:13.736Z,34.28
2023-05-06T06:35:41.008Z,31.30
2023-05-06T06:38:07.728Z,32.67
2023-05-06T06:40:34.677Z,36.28
2023-05-06T06:43:01.534Z,27.88
2023-05-06T06:45:47.526Z,43.22
2023-05-06T06:48:14.989Z,28.38
2023-05-06T06:50:42.179Z,33.20
2023-05-06T06:53:10.348Z,28.48
2023-05-06T06:55:37.274Z,29.52
2023-05-06T06:58:04.259Z,33.08
2023-05-06T07:00:31.245Z,28.30
2023-05-06T07:02:58.362Z,28.77
2023-05-06T07:05:27.000Z,24.88
2023-05-06T07:07:53.899Z,25.10
2023-05-06T07:10:20.588Z,24.27
2023-05-06T07:12:47.353Z,35.42
2023-05-06T07:15:14.100Z,24.02
2023-05-06T07:17:41.023Z,21.73
2023-05-06T07:20:08.200Z,23.05
2023-05-06T07:22:34.999Z,22.13
2023-05-06T07:25:01.806Z,22.48
2023-05-06T07:27:30.387Z,24.08
2023-05-06T07:29:57.234Z,21.83
2023-05-06T07:32:24.001Z,25.08
2023-05-06T07:34:51.095Z,22.15
2023-05-06T07:37:17.965Z,19.08
2023-05-06T07:39:44.780Z,18.92
2023-05-06T07:42:13.223Z,19.30
2023-05-06T07:44:42.140Z,20.30
2023-05-06T07:47:11.543Z,26.05
2023-05-06T07:49:43.758Z,23.27
2023-05-06T07:52:10.625Z,21.95
2023-05-06T07:54:39.140Z,19.83
2023-05-06T07:57:09.878Z,15.63
2023-05-06T07:59:37.002Z,18.92
2023-05-06T08:02:03.755Z,33.28
2023-05-06T08:04:33.851Z,22.58
2023-05-06T08:07:04.397Z,19.40
2023-05-06T08:09:31.186Z,23.60
2023-05-06T08:11:59.101Z,20.73
2023-05-06T08:14:29.010Z,21.98
2023-05-06T08:16:56.896Z,22.27
2023-05-06T08:19:26.885Z,21.60
2023-05-06T08:21:56.657Z,22.90
2023-05-06T08:24:23.402Z,22.15
2023-05-06T08:26:50.211Z,18.38
2023-05-06T08:29:18.616Z,18.00
2023-05-06T08:31:48.474Z,18.92
2023-05-06T08:34:18.643Z,20.42
2023-05-06T08:36:49.377Z,19.40
2023-05-06T08:39:16.103Z,21.48
2023-05-06T08:41:47.277Z,23.83
2023-05-06T08:44:18.767Z,18.73
2023-05-06T08:46:48.690Z,27.48
2023-05-06T08:49:18.663Z,20.65
2023-05-06T08:51:46.166Z,31.42
2023-05-06T08:54:16.325Z,23.45
2023-05-06T08:56:51.876Z,20.30
2023-05-06T08:59:25.642Z,24.30
2023-05-06T09:01:53.192Z,22.60
2023-05-06T09:04:22.504Z,24.17
2023-05-06T09:06:52.044Z,20.42
2023-05-06T09:09:21.659Z,16.83
2023-05-06T09:12:09.746Z,23.95
2023-05-06T09:14:36.896Z,18.23
2023-05-06T09:17:04.087Z,19.00
2023-05-06T09:19:31.118Z,24.25
2023-05-06T09:21:59.269Z,21.10
2023-05-06T09:24:26.868Z,22.75
2023-05-06T09:26:56.948Z,17.15
2023-05-06T09:29:23.662Z,27.63
2023-05-06T09:31:52.532Z,20.70
2023-05-06T09:34:21.104Z,20.77
2023-05-06T09:36:47.806Z,22.77
2023-05-06T09:39:19.887Z,32.65
2023-05-06T09:41:49.458Z,20.52
2023-05-06T09:44:19.190Z,24.48
2023-05-06T09:46:50.914Z,22.85
2023-05-06T09:49:20.237Z,17.63
2023-05-06T09:51:51.308Z,26.13
2023-05-06T09:54:18.309Z,19.65
2023-05-06T09:56:48.111Z,19.23
2023-05-06T09:59:19.870Z,26.15
2023-05-06T10:01:51.990Z,19.80
2023-05-06T10:04:24.606Z,19.63
2023-05-06T10:06:55.930Z,21.02
2023-05-06T10:09:30.053Z,21.75
2023-05-06T10:12:00.958Z,27.02
2023-05-06T10:14:30.316Z,22.27
2023-05-06T10:17:00.834Z,21.85
2023-05-06T10:19:37.062Z,29.67
2023-05-06T10:22:08.748Z,22.70
2023-05-06T10:24:41.598Z,28.50
2023-05-06T10:27:13.701Z,22.95
2023-05-06T10:29:46.797Z,22.27
2023-05-06T10:32:13.679Z,24.23
2023-05-06T10:34:45.490Z,29.45
2023-05-06T10:37:14.881Z,29.40
2023-05-06T10:39:45.422Z,35.97
2023-05-06T10:42:17.976Z,34.22
2023-05-06T10:45:01.992Z,28.52
2023-05-06T10:47:31.855Z,25.92
2023-05-06T10:50:17.419Z,38.80
2023-05-06T10:52:45.129Z,26.75
2023-05-06T10:55:29.085Z,29.55
2023-05-06T10:58:10.837Z,23.50
2023-05-06T11:00:37.954Z,31.23
2023-05-06T11:03:13.222Z,33.95
2023-05-06T11:05:50.157Z,34.70
2023-05-06T11:08:26.591Z,33.20
2023-05-06T11:10:53.995Z,25.80
2023-05-06T11:13:22.241Z,36.30
2023-05-06T11:15:51.981Z,24.15
2023-05-06T11:18:25.956Z,31.20
2023-05-06T11:21:14.285Z,24.15
2023-05-06T11:23:49.333Z,27.80
2023-05-06T11:26:16.363Z,22.73
2023-05-06T11:28:44.078Z,26.42
2023-05-06T11:31:13.380Z,28.70
2023-05-06T11:33:47.752Z,25.08
2023-05-06T11:36:19.014Z,23.58
2023-05-06T11:38:49.760Z,22.77
2023-05-06T11:41:17.021Z,25.33
2023-05-06T11:43:50.899Z,23.35
2023-05-06T11:46:21.822Z,23.85
2023-05-06T11:48:49.597Z,25.45
2023-05-06T11:51:21.520Z,24.95
2023-05-06T11:53:48.561Z,20.73
2023-05-06T11:56:15.478Z,23.05
2023-05-06T11:58:42.540Z,33.33
2023-05-06T12:01:09.624Z,18.05
2023-05-06T12:03:36.767Z,25.55
2023-05-06T12:06:03.837Z,18.73
2023-05-06T12:08:31.792Z,24.45
2023-05-06T12:11:00.139Z,23.30
2023-05-06T12:13:30.501Z,21.35
2023-05-06T12:16:01.578Z,23.27
2023-05-06T12:18:28.758Z,28.40
2023-05-06T12:20:56.197Z,20.10
2023-05-06T12:23:23.415Z,22.75
2023-05-06T12:26:05.842Z,29.42
2023-05-06T12:28:33.743Z,23.00
2023-05-06T12:31:01.438Z,21.80
2023-05-06T12:33:28.208Z,24.73
2023-05-06T12:36:06.446Z,27.67
2023-05-06T12:38:33.838Z,24.77
2023-05-06T12:41:01.605Z,19.42
2023-05-06T12:52:13.497Z,16.77
2023-05-06T13:06:27.164Z,19.65
2023-05-06T13:08:54.090Z,18.85
2023-05-06T13:11:22.283Z,19.67
2023-05-06T13:13:49.090Z,16.85
2023-05-06T13:16:16.480Z,19.48
2023-05-06T13:18:43.242Z,14.85
2023-05-06T13:21:10.029Z,16.42
2023-05-06T13:23:38.295Z,27.85
2023-05-06T13:26:06.159Z,17.02
2023-05-06T13:28:33.657Z,17.15
2023-05-06T13:31:00.654Z,14.07
2023-05-06T13:33:27.472Z,13.68
2023-05-06T13:35:54.212Z,12.82
2023-05-06T13:38:21.098Z,16.70
2023-05-06T13:40:51.942Z,14.65
2023-05-06T13:43:19.261Z,15.05
2023-05-06T13:45:46.148Z,15.45
2023-05-06T13:48:13.681Z,16.98
2023-05-06T13:50:45.898Z,20.33
2023-05-06T13:53:13.198Z,23.33
2023-05-06T13:55:40.749Z,13.77
2023-05-06T13:58:08.304Z,12.98
2023-05-06T14:00:36.370Z,11.10
2023-05-06T14:03:03.321Z,14.27
2023-05-06T14:05:30.320Z,10.73
2023-05-06T14:07:57.091Z,9.82
2023-05-06T14:10:23.950Z,14.68
2023-05-06T14:12:51.371Z,12.80
2023-05-06T14:15:18.294Z,10.70
2023-05-06T14:17:45.207Z,16.23
2023-05-06T14:20:12.095Z,14.70
2023-05-06T14:22:42.707Z,16.73
2023-05-06T14:25:11.428Z,15.82
2023-05-06T14:27:38.994Z,22.83
2023-05-06T14:30:09.422Z,18.60
2023-05-06T14:32:37.652Z,14.05
2023-05-06T14:35:04.959Z,17.80
2023-05-06T14:37:32.049Z,14.52
2023-05-06T14:39:59.251Z,16.70
2023-05-06T14:42:26.321Z,14.95
2023-05-06T14:44:53.162Z,16.70
2023-05-06T14:47:20.328Z,10.30
2023-05-06T14:49:47.692Z,17.17
2023-05-06T14:52:14.498Z,10.30
2023-05-06T14:54:42.679Z,11.52
2023-05-06T14:57:10.638Z,11.85
2023-05-06T14:59:38.441Z,12.30
2023-05-06T15:02:07.790Z,13.38
2023-05-06T15:04:34.860Z,12.48
2023-05-06T15:07:02.981Z,11.90
2023-05-06T15:09:29.957Z,11.60
2023-05-06T15:11:57.092Z,10.90
2023-05-06T15:14:23.762Z,11.88
2023-05-06T15:16:50.421Z,22.48
2023-05-06T15:19:17.273Z,16.13
2023-05-06T15:21:44.223Z,12.25
2023-05-06T15:24:11.382Z,13.85
2023-05-06T15:26:38.331Z,12.02
2023-05-06T15:29:06.335Z,12.50
2023-05-06T15:31:38.969Z,14.10
2023-05-06T15:34:06.448Z,13.02
2023-05-06T15:36:33.493Z,11.85
2023-05-06T15:39:00.996Z,17.38
2023-05-06T15:41:32.652Z,15.48
2023-05-06T15:44:00.940Z,18.08
2023-05-06T15:46:28.020Z,16.25
2023-05-06T15:49:12.819Z,12.68
2023-05-06T15:51:42.400Z,10.07
2023-05-06T15:54:09.419Z,11.35
2023-05-06T15:56:40.638Z,17.23
2023-05-06T15:59:09.037Z,11.30
2023-05-06T16:02:19.060Z,9.52
2023-05-06T16:04:23.695Z,12.00
2023-05-06T16:06:50.717Z,15.90
2023-05-06T16:09:17.506Z,14.48
2023-05-06T16:11:44.298Z,18.55
2023-05-06T16:14:11.169Z,18.17
2023-05-06T16:16:38.114Z,15.48
2023-05-06T16:19:04.982Z,14.15
2023-05-06T16:21:32.006Z,15.25
2023-05-06T16:23:58.906Z,14.23
2023-05-06T16:26:25.787Z,14.77
2023-05-06T16:28:53.820Z,11.23
2023-05-06T16:31:20.825Z,10.93
2023-05-06T16:33:47.625Z,15.82
2023-05-06T16:36:15.035Z,12.70
2023-05-06T16:38:42.384Z,17.00
2023-05-06T16:41:09.118Z,10.85
2023-05-06T16:43:35.802Z,12.40
2023-05-06T16:46:05.446Z,13.35
2023-05-06T16:48:35.268Z,11.15
2023-05-06T16:51:05.242Z,11.02
2023-05-06T16:53:32.005Z,13.05
2023-05-06T16:56:01.418Z,21.20
2023-05-06T16:58:30.072Z,17.52
2023-05-06T17:00:57.050Z,19.52
2023-05-06T17:03:24.069Z,16.80
2023-05-06T17:05:50.886Z,16.00
2023-05-06T17:08:18.847Z,21.30
2023-05-06T17:10:46.084Z,20.17
2023-05-06T17:13:12.947Z,13.27
2023-05-06T17:15:39.699Z,17.08
2023-05-06T17:18:06.462Z,13.85
2023-05-06T17:20:38.028Z,22.35
2023-05-06T17:23:15.047Z,15.90
2023-05-06T17:25:41.794Z,21.15
2023-05-06T17:28:08.579Z,21.85
2023-05-06T17:30:35.579Z,21.27
2023-05-06T17:33:02.600Z,19.60
2023-05-06T17:35:29.339Z,20.02
2023-05-06T17:37:56.231Z,22.35
2023-05-06T17:40:23.047Z,17.90
2023-05-06T17:42:50.069Z,25.35
2023-05-06T17:45:16.987Z,18.55
2023-05-06T17:47:45.530Z,18.17
2023-05-06T17:50:12.496Z,22.83
2023-05-06T17:52:39.332Z,24.80
2023-05-06T17:57:38.111Z,23.10
2023-05-06T18:00:05.572Z,28.02
2023-05-06T18:02:41.359Z,19.23
2023-05-06T18:05:08.764Z,26.05
2023-05-06T18:07:35.908Z,37.30
2023-05-06T18:10:02.919Z,34.55
2023-05-06T18:12:30.438Z,35.75
2023-05-06T18:14:57.628Z,29.17
2023-05-06T18:17:24.563Z,40.58
2023-05-06T18:19:54.187Z,16.70
2023-05-06T18:22:21.056Z,26.85
2023-05-06T18:24:51.035Z,26.33
2023-05-06T18:27:18.212Z,23.70
2023-05-06T18:29:44.922Z,17.40
2023-05-06T18:32:11.769Z,15.95
2023-05-06T18:34:38.603Z,19.63
2023-05-06T18:37:05.936Z,17.70
2023-05-06T18:39:32.829Z,14.10
2023-05-06T18:41:59.933Z,16.55
2023-05-06T18:44:26.808Z,25.13
2023-05-06T18:46:53.601Z,10.73
2023-05-06T18:49:22.788Z,20.42
2023-05-06T18:51:57.166Z,10.18
2023-05-06T18:54:24.445Z,17.13
2023-05-06T18:56:54.863Z,13.57
2023-05-06T18:59:23.913Z,10.23
2023-05-06T19:02:08.157Z,11.75
2023-05-06T19:04:35.412Z,8.82
2023-05-06T19:07:02.612Z,20.83
2023-05-06T19:09:31.065Z,13.10
2023-05-06T19:11:58.022Z,10.77
2023-05-06T19:14:25.557Z,11.93
2023-05-06T19:16:52.559Z,16.48
2023-05-06T19:19:27.001Z,9.02
2023-05-06T19:21:54.089Z,11.48
2023-05-06T19:24:20.927Z,8.23
2023-05-06T19:26:47.768Z,11.70
2023-05-06T19:29:14.858Z,8.13
2023-05-06T19:31:41.898Z,8.70
2023-05-06T19:34:08.692Z,12.02
2023-05-06T19:36:35.565Z,12.63
2023-05-06T19:39:02.394Z,16.65
2023-05-06T19:41:29.284Z,11.95
2023-05-06T19:43:55.984Z,12.85
2023-05-06T19:46:22.801Z,12.10
2023-05-06T19:48:49.636Z,16.13
2023-05-06T19:51:17.014Z,9.88
2023-05-06T19:53:45.646Z,13.38
2023-05-06T19:56:17.053Z,11.45
2023-05-06T19:58:45.706Z,11.38
2023-05-06T20:01:12.783Z,10.27
2023-05-06T20:03:39.918Z,10.57
2023-05-06T20:06:07.001Z,17.20
2023-05-06T20:08:34.838Z,13.60
2023-05-06T20:11:01.782Z,9.85
2023-05-06T20:13:28.803Z,11.27
2023-05-06T20:15:57.400Z,12.38
2023-05-06T20:18:24.622Z,12.27
2023-05-06T20:20:51.333Z,21.38
2023-05-06T20:23:18.040Z,11.18
2023-05-06T20:25:44.977Z,17.90
2023-05-06T20:28:12.850Z,15.13
2023-05-06T20:30:40.170Z,15.70
2023-05-06T20:33:07.984Z,12.88
2023-05-06T20:36:46.333Z,12.27
2023-05-06T20:40:27.382Z,14.60
2023-05-06T20:43:35.338Z,14.45
2023-05-06T20:46:02.367Z,14.50
2023-05-06T20:48:31.279Z,14.88
2023-05-06T20:50:58.292Z,14.88
2023-05-06T20:53:26.531Z,16.10
2023-05-06T20:55:56.294Z,21.35
2023-05-06T20:59:02.301Z,14.60
2023-05-06T21:01:29.161Z,17.65
2023-05-06T21:03:56.701Z,20.73
2023-05-06T21:06:29.007Z,16.35
2023-05-06T21:08:59.350Z,14.65
2023-05-06T21:17:24.200Z,16.80
2023-05-06T21:19:58.211Z,17.10
2023-05-06T21:22:28.050Z,17.02
2023-05-06T21:25:01.145Z,22.35
2023-05-06T21:27:31.631Z,18.77
2023-05-06T21:30:02.146Z,20.90
2023-05-06T21:32:33.008Z,19.05
2023-05-06T21:35:04.057Z,18.63
2023-05-06T21:37:35.954Z,23.70
2023-05-06T21:40:05.872Z,21.73
2023-05-06T21:42:33.043Z,19.63
2023-05-06T21:44:59.828Z,20.92
2023-05-06T21:47:29.510Z,18.55
2023-05-06T22:14:37.382Z,24.02
2023-05-06T22:32:42.915Z,30.42
2023-05-06T22:36:11.345Z,34.05
2023-05-06T22:38:42.695Z,34.38
2023-05-06T22:41:32.204Z,34.53
2023-05-06T22:44:02.263Z,36.85
2023-05-06T22:46:33.032Z,36.30
2023-05-06T22:49:03.817Z,34.97
2023-05-06T22:51:35.129Z,36.70
2023-05-06T22:54:03.014Z,35.38
2023-05-06T22:56:35.252Z,37.65
2023-05-06T22:59:05.958Z,36.72
2023-05-06T23:04:17.243Z,37.80
2023-05-06T23:06:44.599Z,39.60
2023-05-06T23:09:12.581Z,44.30
2023-05-06T23:11:40.595Z,40.80
2023-05-06T23:14:11.244Z,52.13
2023-05-06T23:16:39.117Z,46.55
2023-05-06T23:19:07.081Z,40.42
2023-05-06T23:21:34.280Z,45.95
2023-05-06T23:24:01.630Z,40.35
2023-05-06T23:26:31.670Z,43.42
2023-05-06T23:28:58.979Z,40.72
2023-05-06T23:31:50.192Z,43.08
2023-05-06T23:34:17.231Z,42.67
2023-05-06T23:36:47.682Z,46.75
2023-05-06T23:39:17.943Z,44.55
2023-05-06T23:41:48.621Z,47.63
2023-05-06T23:44:15.543Z,42.35
2023-05-06T23:46:45.655Z,42.25
2023-05-06T23:49:19.823Z,41.05
2023-05-06T23:51:47.570Z,43.95
2023-05-06T23:54:17.988Z,43.63
2023-05-06T23:56:48.294Z,46.50
2023-05-06T23:59:18.825Z,45.70
